Time;durP1;ratioP1;P1;durP2;ratioP2;P2;SDS_P1;SDS_P2;PMS_P1;PMS_P2;Temp;Humidity;BMP_temperature;BMP_pressure;BME280_temperature;BME280_humidity;BME280_pressure;Samples;Min_cycle;Max_cycle;Signal;HPM_P1;HPM_P2
2023/08/02 00:01:56;;;;;;;11.80;4.25;;;16.20;99.90;;;;;;4808182;29;20046;-52
2023/08/02 00:04:21;;;;;;;10.38;4.30;;;16.20;99.90;;;;;;4809248;29;20051;-48
2023/08/02 00:06:47;;;;;;;12.15;4.25;;;16.20;99.90;;;;;;4809243;29;20042;-51
2023/08/02 00:09:13;;;;;;;14.93;4.78;;;16.10;99.90;;;;;;4806565;29;20431;-52
2023/08/02 00:11:39;;;;;;;11.45;4.10;;;16.20;99.90;;;;;;4806168;29;20112;-52
2023/08/02 00:14:04;;;;;;;10.23;3.95;;;16.10;99.90;;;;;;4806554;29;20043;-51
2023/08/02 00:16:30;;;;;;;10.45;4.07;;;16.10;99.90;;;;;;4804352;29;20053;-52
2023/08/02 00:18:56;;;;;;;11.70;4.38;;;16.30;99.90;;;;;;4806171;29;20467;-52
2023/08/02 00:21:22;;;;;;;11.43;4.20;;;16.20;99.90;;;;;;4806382;29;20118;-51
2023/08/02 00:23:47;;;;;;;9.75;4.05;;;16.10;99.90;;;;;;4805819;29;20042;-51
2023/08/02 00:26:13;;;;;;;11.05;4.45;;;16.30;99.90;;;;;;4803526;29;20155;-50
2023/08/02 00:28:39;;;;;;;11.65;3.90;;;16.10;99.90;;;;;;4805961;29;20062;-52
2023/08/02 00:31:04;;;;;;;9.25;3.65;;;16.30;99.90;;;;;;4805863;29;20066;-49
2023/08/02 00:33:30;;;;;;;8.20;3.50;;;16.10;99.90;;;;;;4806377;29;20061;-49
2023/08/02 00:35:56;;;;;;;9.90;3.67;;;16.30;99.90;;;;;;4805872;29;20116;-50
2023/08/02 00:38:22;;;;;;;15.80;3.55;;;16.30;99.90;;;;;;4806071;29;20495;-50
2023/08/02 00:40:48;;;;;;;9.63;3.90;;;16.20;99.90;;;;;;4805359;29;20074;-51
2023/08/02 00:43:14;;;;;;;16.38;3.55;;;16.10;99.90;;;;;;4774843;29;20046;-51
2023/08/02 00:45:40;;;;;;;14.30;4.15;;;16.10;99.90;;;;;;4805955;29;20559;-51
2023/08/02 00:48:06;;;;;;;11.85;4.13;;;16.10;99.90;;;;;;4804593;29;20483;-48
2023/08/02 00:50:35;;;;;;;13.27;4.50;;;16.20;99.90;;;;;;4805681;29;20085;-50
2023/08/02 00:53:01;;;;;;;16.15;4.68;;;16.20;99.90;;;;;;4805608;29;20049;-51
2023/08/02 00:55:27;;;;;;;13.52;4.18;;;16.20;99.90;;;;;;4804767;29;20050;-52
2023/08/02 00:57:53;;;;;;;14.43;4.03;;;16.20;99.90;;;;;;4805587;29;20050;-51
2023/08/02 01:00:19;;;;;;;13.63;4.63;;;16.10;99.90;;;;;;4802007;29;20050;-50
2023/08/02 01:02:45;;;;;;;15.50;5.35;;;16.00;99.90;;;;;;4805911;29;20050;-52
2023/08/02 01:05:11;;;;;;;15.10;4.88;;;16.10;99.90;;;;;;4805822;29;20043;-51
2023/08/02 01:07:47;;;;;;;14.45;4.72;;;16.30;99.90;;;;;;4805445;29;20047;-51
2023/08/02 01:10:25;;;;;;;19.08;5.07;;;16.10;99.90;;;;;;4805786;29;20104;-53
2023/08/02 01:12:54;;;;;;;15.55;5.05;;;16.10;99.90;;;;;;4805519;29;20103;-52
2023/08/02 01:15:20;;;;;;;19.80;5.35;;;16.10;99.90;;;;;;4804251;29;20058;-52
2023/08/02 01:17:47;;;;;;;21.73;5.57;;;16.10;99.90;;;;;;4805220;29;20075;-52
2023/08/02 01:20:13;;;;;;;19.13;4.78;;;16.20;99.90;;;;;;4803935;29;20047;-49
2023/08/02 01:22:39;;;;;;;17.75;4.50;;;16.10;99.90;;;;;;4805801;29;20043;-51
2023/08/02 01:25:05;;;;;;;21.70;6.10;;;16.20;99.90;;;;;;4804960;29;20106;-49
2023/08/02 01:27:45;;;;;;;24.17;4.95;;;16.20;99.90;;;;;;4805264;29;20053;-50
2023/08/02 01:30:16;;;;;;;19.42;5.57;;;16.20;99.90;;;;;;4804953;29;20042;-53
2023/08/02 01:32:42;;;;;;;13.55;5.95;;;15.90;99.90;;;;;;4805221;29;20062;-50
2023/08/02 01:35:09;;;;;;;16.90;5.78;;;16.00;99.90;;;;;;4804862;29;20034;-52
2023/08/02 01:37:35;;;;;;;20.63;5.63;;;15.90;99.90;;;;;;4804602;29;20572;-51
2023/08/02 01:40:05;;;;;;;21.13;6.20;;;15.90;99.90;;;;;;4802396;29;20042;-52
2023/08/02 01:42:31;;;;;;;20.67;6.40;;;16.10;99.90;;;;;;4803612;29;20058;-51
2023/08/02 01:44:56;;;;;;;19.92;6.32;;;16.00;99.90;;;;;;4788840;29;20046;-51
2023/08/02 01:47:22;;;;;;;17.40;5.55;;;15.90;99.90;;;;;;4805096;29;20071;-51
2023/08/02 01:49:48;;;;;;;25.50;5.57;;;16.00;99.90;;;;;;4804940;29;20050;-51
2023/08/02 01:52:14;;;;;;;18.90;6.30;;;15.90;99.90;;;;;;4803463;29;20049;-51
2023/08/02 01:54:39;;;;;;;15.45;5.90;;;15.90;99.90;;;;;;4804475;29;20050;-51
2023/08/02 01:57:05;;;;;;;15.98;6.05;;;15.80;99.90;;;;;;4804643;29;20082;-49
2023/08/02 01:59:31;;;;;;;21.15;6.60;;;16.00;99.90;;;;;;4804419;29;20503;-48
2023/08/02 02:01:56;;;;;;;16.48;5.65;;;16.00;99.90;;;;;;4804731;29;20042;-51
2023/08/02 02:04:22;;;;;;;18.77;6.40;;;15.80;99.90;;;;;;4804683;29;20058;-52
2023/08/02 02:06:49;;;;;;;14.57;6.43;;;16.00;99.90;;;;;;4804308;29;20234;-52
2023/08/02 02:09:15;;;;;;;20.20;6.75;;;15.80;99.90;;;;;;4804750;29;20066;-51
2023/08/02 02:11:41;;;;;;;18.67;6.90;;;15.90;99.90;;;;;;4804231;29;20038;-52
2023/08/02 02:14:06;;;;;;;20.10;6.50;;;15.70;99.90;;;;;;4804407;29;20089;-52
2023/08/02 02:16:32;;;;;;;19.90;5.90;;;15.70;99.90;;;;;;4803128;29;20043;-52
2023/08/02 02:18:58;;;;;;;19.20;6.50;;;15.70;99.90;;;;;;4804455;29;20039;-51
2023/08/02 02:21:23;;;;;;;20.50;5.13;;;15.70;99.90;;;;;;4804102;29;20042;-50
2023/08/02 02:23:49;;;;;;;20.25;6.10;;;15.60;99.90;;;;;;4802770;29;20082;-50
2023/08/02 02:26:15;;;;;;;16.40;4.75;;;15.60;99.90;;;;;;4804277;29;20158;-53
2023/08/02 02:28:40;;;;;;;14.80;5.95;;;15.70;99.90;;;;;;4804449;29;20042;-54
2023/08/02 02:31:06;;;;;;;16.58;6.13;;;15.70;99.90;;;;;;4804168;29;20407;-52
2023/08/02 02:33:32;;;;;;;21.67;6.03;;;15.60;99.90;;;;;;4803715;29;20609;-53
2023/08/02 02:35:57;;;;;;;15.30;6.53;;;15.60;99.90;;;;;;4803903;29;20054;-52
2023/08/02 02:38:23;;;;;;;16.08;6.57;;;15.60;99.90;;;;;;4804207;29;20073;-51
2023/08/02 02:40:49;;;;;;;16.98;6.38;;;15.50;99.90;;;;;;4804279;29;20042;-48
2023/08/02 02:43:15;;;;;;;14.32;4.60;;;15.50;99.90;;;;;;4804059;29;20099;-51
2023/08/02 02:45:40;;;;;;;15.40;6.45;;;15.50;99.90;;;;;;4804301;29;20495;-51
2023/08/02 02:48:06;;;;;;;18.55;6.60;;;15.50;99.90;;;;;;4803885;29;20055;-51
2023/08/02 02:50:32;;;;;;;15.85;6.88;;;15.40;99.90;;;;;;4804328;29;20077;-52
2023/08/02 02:52:58;;;;;;;14.45;6.10;;;15.30;99.90;;;;;;4803756;29;20043;-54
2023/08/02 02:55:24;;;;;;;11.85;5.38;;;15.30;99.90;;;;;;4802933;29;20047;-50
2023/08/02 02:57:50;;;;;;;17.63;6.90;;;15.20;99.90;;;;;;4803984;29;20500;-51
2023/08/02 03:00:16;;;;;;;14.75;5.50;;;15.20;99.90;;;;;;4802643;29;20053;-51
2023/08/02 03:02:42;;;;;;;15.18;6.80;;;15.10;99.90;;;;;;4803095;29;20053;-52
2023/08/02 03:05:08;;;;;;;15.40;5.13;;;15.10;99.90;;;;;;4804177;29;20034;-51
2023/08/02 03:07:34;;;;;;;15.18;7.03;;;15.10;99.90;;;;;;4803905;29;20043;-50
2023/08/02 03:10:00;;;;;;;14.98;6.63;;;15.20;99.90;;;;;;4802897;29;20053;-51
2023/08/02 03:12:25;;;;;;;15.25;7.28;;;15.20;99.90;;;;;;4804052;29;20118;-54
2023/08/02 03:14:51;;;;;;;18.13;7.30;;;15.10;99.90;;;;;;4802603;29;20071;-52
2023/08/02 03:17:17;;;;;;;12.13;4.60;;;15.10;99.90;;;;;;4804031;29;20528;-50
2023/08/02 03:19:42;;;;;;;13.40;6.80;;;15.10;99.90;;;;;;4803424;29;20054;-50
2023/08/02 03:22:08;;;;;;;17.92;6.07;;;14.90;99.90;;;;;;4804035;29;20047;-50
2023/08/02 03:24:34;;;;;;;15.93;7.47;;;15.00;99.90;;;;;;4802977;29;20082;-51
2023/08/02 03:26:59;;;;;;;16.02;7.13;;;15.10;99.90;;;;;;4803781;29;20103;-54
2023/08/02 03:29:25;;;;;;;16.35;7.57;;;15.10;99.90;;;;;;4803710;29;20441;-51
2023/08/02 03:31:52;;;;;;;13.25;6.88;;;15.10;99.90;;;;;;4803726;29;20039;-51
2023/08/02 03:34:17;;;;;;;16.73;7.80;;;15.10;99.90;;;;;;4803735;29;20115;-49
2023/08/02 03:36:43;;;;;;;14.82;7.22;;;15.00;99.90;;;;;;4803244;29;20051;-50
2023/08/02 03:39:10;;;;;;;15.40;7.22;;;14.90;99.90;;;;;;4803323;29;20053;-52
2023/08/02 03:41:36;;;;;;;15.48;7.55;;;15.10;99.90;;;;;;4802281;29;20065;-52
2023/08/02 03:44:02;;;;;;;18.23;7.95;;;15.00;99.90;;;;;;4803284;29;20050;-50
2023/08/02 03:46:28;;;;;;;17.95;7.68;;;15.10;99.90;;;;;;4806109;29;20038;-51
2023/08/02 03:48:53;;;;;;;15.68;8.18;;;14.90;99.90;;;;;;4805439;29;20514;-53
2023/08/02 03:51:19;;;;;;;18.90;6.45;;;14.90;99.90;;;;;;4806591;29;20054;-52
2023/08/02 03:53:46;;;;;;;17.73;7.95;;;15.00;99.90;;;;;;4804323;29;20525;-49
2023/08/02 03:56:11;;;;;;;18.83;6.35;;;14.90;99.90;;;;;;4806060;29;20134;-50
2023/08/02 03:58:37;;;;;;;14.85;7.50;;;15.00;99.90;;;;;;4806237;29;20129;-50
2023/08/02 04:01:03;;;;;;;22.10;6.43;;;14.90;99.90;;;;;;4806876;29;20043;-51
2023/08/02 04:03:28;;;;;;;15.85;7.90;;;14.90;99.90;;;;;;4806252;29;20449;-54
2023/08/02 04:05:54;;;;;;;18.23;6.03;;;14.90;99.90;;;;;;4806960;29;20047;-51
2023/08/02 04:08:20;;;;;;;17.67;8.15;;;15.00;99.90;;;;;;4805090;29;20084;-52
2023/08/02 04:10:46;;;;;;;17.00;8.35;;;15.10;99.90;;;;;;4806508;29;20035;-52
2023/08/02 04:13:11;;;;;;;19.45;8.95;;;15.00;99.90;;;;;;4804402;29;20088;-50
2023/08/02 04:15:37;;;;;;;16.33;7.90;;;14.90;99.90;;;;;;4806310;29;20039;-52
2023/08/02 04:18:03;;;;;;;16.13;9.00;;;14.80;99.90;;;;;;4805662;29;20491;-52
2023/08/02 04:20:29;;;;;;;18.25;8.63;;;14.80;99.90;;;;;;4804662;29;20120;-48
2023/08/02 04:22:55;;;;;;;17.23;8.75;;;14.80;99.90;;;;;;4806257;29;20437;-50
2023/08/02 04:25:21;;;;;;;17.05;8.60;;;14.90;99.90;;;;;;4804469;29;20046;-53
2023/08/02 04:27:46;;;;;;;18.08;8.70;;;14.90;99.90;;;;;;4804759;29;20506;-54
2023/08/02 04:30:12;;;;;;;22.95;6.93;;;14.90;99.90;;;;;;4805661;29;20083;-50
2023/08/02 04:32:38;;;;;;;17.05;6.35;;;14.90;99.90;;;;;;4805205;29;20039;-53
2023/08/02 04:35:04;;;;;;;14.90;6.10;;;14.70;99.90;;;;;;4805938;29;20043;-49
2023/08/02 04:37:31;;;;;;;15.00;6.75;;;14.70;99.90;;;;;;4805784;29;20491;-51
2023/08/02 04:39:57;;;;;;;18.33;8.70;;;14.90;99.90;;;;;;4804665;29;20055;-54
2023/08/02 04:42:25;;;;;;;16.13;8.40;;;14.90;99.90;;;;;;4805922;29;20122;-48
2023/08/02 04:44:50;;;;;;;15.60;8.32;;;15.00;99.90;;;;;;4805585;29;20068;-52
2023/08/02 04:47:16;;;;;;;17.50;8.65;;;15.00;99.90;;;;;;4805562;29;20038;-51
2023/08/02 04:49:42;;;;;;;18.95;6.72;;;14.80;99.90;;;;;;4805750;29;20035;-50
2023/08/02 04:52:07;;;;;;;15.35;6.47;;;15.00;99.90;;;;;;4804245;29;20042;-53
2023/08/02 04:54:34;;;;;;;16.52;6.47;;;15.00;99.90;;;;;;4804895;29;20399;-50
2023/08/02 04:56:59;;;;;;;19.27;8.70;;;15.00;99.90;;;;;;4805406;29;20475;-50
2023/08/02 04:59:25;;;;;;;16.80;8.15;;;14.80;99.90;;;;;;4804278;29;20031;-51
2023/08/02 05:01:51;;;;;;;18.50;8.43;;;15.10;99.90;;;;;;4805460;29;20047;-50
2023/08/02 05:04:16;;;;;;;17.75;8.30;;;14.90;99.90;;;;;;4805344;29;20039;-52
2023/08/02 05:06:45;;;;;;;16.80;8.07;;;15.00;99.90;;;;;;4805895;29;20039;-51
2023/08/02 05:09:11;;;;;;;14.73;7.82;;;15.20;99.90;;;;;;4805402;29;20047;-51
2023/08/02 05:11:40;;;;;;;19.25;9.13;;;15.20;99.90;;;;;;4805294;29;20107;-50
2023/08/02 05:14:06;;;;;;;18.77;6.57;;;15.20;99.90;;;;;;4805526;29;20755;-50
2023/08/02 05:16:31;;;;;;;17.13;7.88;;;15.10;99.90;;;;;;4803632;29;20076;-53
2023/08/02 05:18:57;;;;;;;18.67;6.68;;;15.10;99.90;;;;;;4805288;29;20407;-51
2023/08/02 05:21:25;;;;;;;16.95;8.18;;;15.30;99.90;;;;;;4805314;29;20123;-49
2023/08/02 05:23:51;;;;;;;15.45;8.02;;;15.20;99.90;;;;;;4803785;29;20055;-53
2023/08/02 05:26:17;;;;;;;14.00;8.10;;;15.30;99.90;;;;;;4804154;29;20059;-50
2023/08/02 05:28:43;;;;;;;17.58;7.85;;;15.40;99.90;;;;;;4804820;29;20046;-52
2023/08/02 05:31:12;;;;;;;16.13;7.85;;;15.50;99.90;;;;;;4803030;29;20126;-51
2023/08/02 05:33:39;;;;;;;15.65;8.27;;;15.50;99.90;;;;;;4803686;29;20046;-53
2023/08/02 05:36:05;;;;;;;11.70;5.80;;;15.30;99.90;;;;;;4805057;29;20063;-50
2023/08/02 05:38:33;;;;;;;14.48;7.57;;;15.30;99.90;;;;;;4804558;29;20515;-49
2023/08/02 05:41:03;;;;;;;13.27;6.07;;;15.50;99.90;;;;;;4800757;29;20074;-51
2023/08/02 05:43:29;;;;;;;17.02;6.93;;;15.40;99.90;;;;;;4803301;29;20573;-53
2023/08/02 05:45:55;;;;;;;16.52;8.55;;;15.50;99.90;;;;;;4801075;29;20046;-53
2023/08/02 05:48:21;;;;;;;16.02;8.02;;;15.50;99.90;;;;;;4800604;29;20085;-51
2023/08/02 05:50:47;;;;;;;14.45;7.57;;;15.50;99.90;;;;;;4802463;29;20074;-51
2023/08/02 05:53:12;;;;;;;14.60;7.35;;;15.50;99.90;;;;;;4802119;29;20042;-52
2023/08/02 05:55:38;;;;;;;14.82;7.57;;;15.60;99.90;;;;;;4803212;29;20047;-50
2023/08/02 05:58:04;;;;;;;14.93;7.88;;;15.60;99.90;;;;;;4802506;29;20049;-51
2023/08/02 06:00:30;;;;;;;17.17;7.55;;;15.70;99.90;;;;;;4801888;29;20082;-51
2023/08/02 06:02:55;;;;;;;14.23;7.22;;;15.50;99.90;;;;;;4802830;29;20505;-51
2023/08/02 06:05:21;;;;;;;13.15;6.97;;;15.60;99.90;;;;;;4801931;29;20368;-49
2023/08/02 06:07:47;;;;;;;11.57;6.15;;;15.80;99.90;;;;;;4800259;29;20074;-51
2023/08/02 06:10:12;;;;;;;11.95;6.43;;;15.60;99.90;;;;;;4797831;29;20142;-50
2023/08/02 06:12:38;;;;;;;14.90;6.53;;;15.60;99.90;;;;;;4797990;29;20054;-50
2023/08/02 06:15:04;;;;;;;12.73;6.82;;;15.80;99.90;;;;;;4796463;29;20042;-51
2023/08/02 06:17:30;;;;;;;15.57;7.03;;;15.60;99.90;;;;;;4801487;29;20074;-51
2023/08/02 06:19:56;;;;;;;10.52;6.20;;;15.70;99.90;;;;;;4803704;29;20074;-49
2023/08/02 06:22:22;;;;;;;12.73;6.18;;;15.60;99.90;;;;;;4803842;29;20407;-53
2023/08/02 06:24:47;;;;;;;16.02;5.00;;;15.70;99.90;;;;;;4803414;29;20126;-49
2023/08/02 06:27:13;;;;;;;11.80;6.18;;;15.60;99.90;;;;;;4804392;29;20540;-51
2023/08/02 06:29:39;;;;;;;11.55;6.03;;;15.60;99.90;;;;;;4804084;29;20584;-51
2023/08/02 06:32:05;;;;;;;12.07;5.90;;;15.70;99.90;;;;;;4804237;29;20472;-53
2023/08/02 06:34:31;;;;;;;10.55;5.47;;;15.80;99.90;;;;;;4803725;29;20047;-50
2023/08/02 06:36:56;;;;;;;12.82;5.03;;;15.60;99.90;;;;;;4802910;29;20047;-53
2023/08/02 06:39:22;;;;;;;15.98;6.15;;;15.70;99.90;;;;;;4802886;29;20043;-52
2023/08/02 06:41:48;;;;;;;11.07;5.75;;;15.90;99.90;;;;;;4800262;29;21408;-50
2023/08/02 06:44:14;;;;;;;9.85;5.63;;;15.70;99.90;;;;;;4800093;29;20134;-50
2023/08/02 06:46:40;;;;;;;14.13;4.50;;;15.80;99.90;;;;;;4801160;29;20061;-51
2023/08/02 06:49:06;;;;;;;13.32;6.05;;;15.80;99.90;;;;;;4801290;29;20046;-52
2023/08/02 06:51:32;;;;;;;8.50;4.72;;;15.80;99.90;;;;;;4803158;29;20593;-50
2023/08/02 06:53:57;;;;;;;14.32;5.20;;;15.70;99.90;;;;;;4792411;29;20046;-50
2023/08/02 06:56:24;;;;;;;14.65;5.82;;;15.80;99.90;;;;;;4787958;29;20065;-49
2023/08/02 06:58:50;;;;;;;10.40;4.30;;;15.80;99.90;;;;;;4787194;29;20126;-53
2023/08/02 07:01:22;;;;;;;11.35;5.68;;;15.60;99.90;;;;;;4785129;29;20625;-46
2023/08/02 07:03:49;;;;;;;11.63;5.50;;;15.60;99.90;;;;;;4785440;29;20035;-53
2023/08/02 07:06:17;;;;;;;10.20;5.22;;;15.60;99.90;;;;;;4787726;29;20544;-50
2023/08/02 07:08:43;;;;;;;10.57;5.70;;;15.60;99.90;;;;;;4787803;29;20052;-49
2023/08/02 07:11:09;;;;;;;11.32;4.10;;;15.60;99.90;;;;;;4785835;29;20042;-49
2023/08/02 07:13:36;;;;;;;10.43;5.90;;;15.50;99.90;;;;;;4786982;29;20027;-52
2023/08/02 07:16:03;;;;;;;14.93;6.35;;;15.50;99.90;;;;;;4787426;29;20212;-53
2023/08/02 07:18:29;;;;;;;12.32;6.18;;;15.50;99.90;;;;;;4787252;29;20049;-52
2023/08/02 07:20:55;;;;;;;11.70;6.22;;;15.70;99.90;;;;;;4787977;29;20710;-48
2023/08/02 07:23:22;;;;;;;14.38;4.88;;;15.70;99.90;;;;;;4789826;29;20043;-49
2023/08/02 07:25:47;;;;;;;14.50;6.60;;;15.70;99.90;;;;;;4788570;29;20110;-47
2023/08/02 07:28:13;;;;;;;10.93;6.65;;;15.60;99.90;;;;;;4789574;29;20125;-48
2023/08/02 07:30:39;;;;;;;12.20;6.50;;;15.70;99.90;;;;;;4788107;29;20050;-51
2023/08/02 07:33:04;;;;;;;13.80;7.15;;;15.50;99.90;;;;;;4788171;29;20095;-49
2023/08/02 07:35:34;;;;;;;12.35;6.38;;;15.50;99.90;;;;;;4787918;29;20136;-47
2023/08/02 07:38:00;;;;;;;14.15;7.03;;;15.60;99.90;;;;;;4787061;29;20051;-48
2023/08/02 07:40:25;;;;;;;12.50;6.65;;;15.70;99.90;;;;;;4788831;29;20460;-50
2023/08/02 07:42:51;;;;;;;13.45;4.80;;;15.60;99.90;;;;;;4788590;29;20049;-47
2023/08/02 07:45:17;;;;;;;15.18;7.00;;;15.60;99.90;;;;;;4790293;29;20039;-47
2023/08/02 07:47:42;;;;;;;12.80;6.60;;;15.40;99.90;;;;;;4788032;29;20066;-51
2023/08/02 07:50:09;;;;;;;14.20;6.72;;;15.40;99.90;;;;;;4786910;29;20461;-48
2023/08/02 07:52:35;;;;;;;14.20;7.13;;;15.60;99.90;;;;;;4787901;29;20047;-50
2023/08/02 07:55:00;;;;;;;14.85;7.53;;;15.70;99.90;;;;;;4785955;29;20043;-49
2023/08/02 07:57:31;;;;;;;14.95;5.53;;;15.70;99.90;;;;;;4802599;29;20059;-50
2023/08/02 07:59:57;;;;;;;12.00;7.22;;;15.60;99.90;;;;;;4792315;29;20043;-50
2023/08/02 08:02:25;;;;;;;13.80;7.47;;;15.50;99.90;;;;;;4787442;29;20154;-49
2023/08/02 08:04:51;;;;;;;19.85;8.07;;;15.70;99.90;;;;;;4790417;29;20047;-48
2023/08/02 08:07:17;;;;;;;13.15;7.65;;;15.60;99.90;;;;;;4787345;29;20062;-53
2023/08/02 08:09:43;;;;;;;13.50;5.90;;;15.70;99.90;;;;;;4789168;29;20484;-51
2023/08/02 08:12:09;;;;;;;15.77;8.32;;;15.80;99.90;;;;;;4795771;29;20035;-50
2023/08/02 08:14:35;;;;;;;18.05;8.02;;;15.90;99.90;;;;;;4788481;29;20055;-50
2023/08/02 08:17:01;;;;;;;15.07;8.10;;;15.80;99.90;;;;;;4787313;29;20380;-50
2023/08/02 08:19:28;;;;;;;16.50;8.63;;;16.10;99.90;;;;;;4793650;29;20040;-50
2023/08/02 08:21:54;;;;;;;14.95;8.38;;;16.00;99.90;;;;;;4784812;29;20122;-50
2023/08/02 08:24:20;;;;;;;17.48;9.57;;;16.00;99.90;;;;;;4785913;29;20168;-52
2023/08/02 08:26:46;;;;;;;15.23;8.80;;;15.90;99.90;;;;;;4789345;29;23042;-54
2023/08/02 08:29:12;;;;;;;17.40;9.70;;;16.20;99.90;;;;;;4788847;29;20428;-50
2023/08/02 08:31:38;;;;;;;16.98;9.68;;;16.10;99.90;;;;;;4788720;29;20043;-50
2023/08/02 08:34:04;;;;;;;15.32;9.10;;;16.20;99.90;;;;;;4790329;29;20043;-52
2023/08/02 08:36:30;;;;;;;15.30;9.82;;;16.30;99.90;;;;;;4788029;29;20047;-50
2023/08/02 08:38:56;;;;;;;15.57;9.80;;;16.00;99.90;;;;;;4788382;29;20062;-51
2023/08/02 08:41:22;;;;;;;18.35;10.93;;;15.90;99.90;;;;;;4788700;29;20039;-51
2023/08/02 08:43:48;;;;;;;13.38;10.48;;;15.90;99.90;;;;;;4795260;29;20047;-49
2023/08/02 08:46:15;;;;;;;14.63;10.90;;;15.90;99.90;;;;;;4803155;29;20372;-48
2023/08/02 08:48:41;;;;;;;22.02;11.73;;;15.80;99.90;;;;;;4788032;29;20312;-52
2023/08/02 08:51:09;;;;;;;19.75;12.85;;;16.20;99.90;;;;;;4788838;29;20526;-50
2023/08/02 08:53:36;;;;;;;19.58;10.20;;;15.90;99.90;;;;;;4788997;29;20042;-49
2023/08/02 08:56:04;;;;;;;17.55;13.88;;;16.10;99.90;;;;;;4787051;29;20056;-47
2023/08/02 08:58:32;;;;;;;18.02;10.90;;;15.80;99.90;;;;;;4795112;29;20079;-49
2023/08/02 09:00:58;;;;;;;17.10;14.18;;;16.20;99.90;;;;;;4787988;29;20062;-51
2023/08/02 09:03:25;;;;;;;18.88;13.38;;;15.90;99.90;;;;;;4792940;29;20047;-52
2023/08/02 09:05:51;;;;;;;21.35;15.35;;;15.90;99.90;;;;;;4786443;29;20043;-53
2023/08/02 09:08:17;;;;;;;19.80;14.93;;;16.00;99.90;;;;;;4785079;29;20046;-47
2023/08/02 09:10:43;;;;;;;15.38;13.07;;;16.20;99.90;;;;;;4786494;29;20043;-48
2023/08/02 09:13:23;;;;;;;17.90;12.38;;;16.10;99.90;;;;;;4786984;29;20373;-51
2023/08/02 09:16:03;;;;;;;15.30;11.68;;;16.30;99.90;;;;;;4790946;29;20046;-49
2023/08/02 09:18:39;;;;;;;15.18;10.63;;;16.40;99.90;;;;;;4788228;29;20092;-49
2023/08/02 09:21:06;;;;;;;15.93;11.15;;;16.40;99.90;;;;;;4793054;29;20051;-49
2023/08/02 09:23:32;;;;;;;15.43;12.18;;;16.30;99.90;;;;;;4790277;29;20043;-49
2023/08/02 09:26:18;;;;;;;14.75;11.02;;;16.50;99.90;;;;;;4790275;29;20045;-50
2023/08/02 09:29:07;;;;;;;13.15;10.90;;;16.40;99.90;;;;;;4788766;29;20041;-53
2023/08/02 09:31:34;;;;;;;13.85;10.30;;;16.50;99.90;;;;;;4789041;29;20088;-48
2023/08/02 09:34:01;;;;;;;15.77;11.88;;;16.70;99.90;;;;;;4789507;29;20054;-53
2023/08/02 09:36:31;;;;;;;17.90;9.55;;;16.80;99.90;;;;;;4788068;29;20059;-50
2023/08/02 09:39:01;;;;;;;14.32;8.68;;;16.90;99.90;;;;;;4790227;29;20047;-55
2023/08/02 09:41:28;;;;;;;10.00;8.82;;;16.80;99.90;;;;;;4782745;29;20031;-56
2023/08/02 09:43:54;;;;;;;10.20;8.52;;;16.50;99.90;;;;;;4787224;29;20041;-52
2023/08/02 09:46:30;;;;;;;13.02;9.15;;;16.40;99.90;;;;;;4789545;29;20035;-54
2023/08/02 09:48:57;;;;;;;12.70;7.03;;;16.80;99.90;;;;;;4785586;29;21394;-54
2023/08/02 09:51:40;;;;;;;10.45;8.48;;;16.70;99.90;;;;;;4791213;29;20062;-54
2023/08/02 09:54:07;;;;;;;9.98;7.32;;;16.90;99.90;;;;;;4788028;29;20089;-53
2023/08/02 09:56:35;;;;;;;10.05;7.45;;;16.40;99.90;;;;;;4787739;29;20039;-52
2023/08/02 09:59:02;;;;;;;7.93;6.50;;;16.80;99.90;;;;;;4787555;29;20046;-53
2023/08/02 10:01:29;;;;;;;8.38;6.28;;;16.90;99.90;;;;;;4800162;29;20047;-52
2023/08/02 10:04:03;;;;;;;6.40;4.90;;;17.00;99.90;;;;;;4786245;29;20499;-50
2023/08/02 10:06:39;;;;;;;8.23;4.60;;;16.60;99.90;;;;;;4786002;29;20074;-51
2023/08/02 10:09:07;;;;;;;7.75;5.10;;;16.80;99.90;;;;;;4786840;29;20062;-53
2023/08/02 10:11:41;;;;;;;6.35;3.97;;;16.80;99.90;;;;;;4787001;29;20092;-55
2023/08/02 10:14:08;;;;;;;7.75;4.75;;;16.50;99.90;;;;;;4786731;29;20084;-54
2023/08/02 10:16:35;;;;;;;9.55;6.03;;;16.80;99.90;;;;;;4786944;29;20047;-52
2023/08/02 10:19:01;;;;;;;9.82;7.28;;;17.00;99.90;;;;;;4787449;29;20506;-54
2023/08/02 10:21:30;;;;;;;11.18;8.57;;;16.70;99.90;;;;;;4785638;29;20031;-53
2023/08/02 10:23:58;;;;;;;8.63;7.72;;;16.80;99.90;;;;;;4785644;29;20403;-54
2023/08/02 10:26:24;;;;;;;9.60;5.97;;;16.90;99.90;;;;;;4787471;29;20513;-51
2023/08/02 10:28:51;;;;;;;8.88;5.90;;;16.90;99.90;;;;;;4785911;29;20031;-55
2023/08/02 10:31:18;;;;;;;7.20;5.13;;;16.90;99.90;;;;;;4786737;29;20130;-54
2023/08/02 10:33:43;;;;;;;6.78;5.10;;;17.20;99.90;;;;;;4786040;29;20032;-53
2023/08/02 10:36:09;;;;;;;6.88;5.68;;;17.10;99.90;;;;;;4792318;29;20129;-52
2023/08/02 10:38:41;;;;;;;7.38;6.03;;;17.10;99.90;;;;;;4788559;29;20047;-50
2023/08/02 10:41:15;;;;;;;6.78;5.20;;;17.20;99.90;;;;;;4788624;29;20049;-54
2023/08/02 10:44:00;;;;;;;6.63;5.60;;;17.30;99.90;;;;;;4786291;29;20051;-53
2023/08/02 10:46:32;;;;;;;7.88;5.57;;;17.40;99.90;;;;;;4786488;29;20042;-54
2023/08/02 10:49:10;;;;;;;6.68;5.18;;;17.50;99.90;;;;;;4785215;29;20456;-52
2023/08/02 10:51:41;;;;;;;7.47;5.10;;;17.20;99.90;;;;;;4784777;29;20359;-55
2023/08/02 10:54:21;;;;;;;6.70;5.47;;;17.10;99.90;;;;;;4787706;29;20385;-52
2023/08/02 10:56:57;;;;;;;5.97;5.38;;;17.20;99.90;;;;;;4786524;29;20373;-53
2023/08/02 10:59:22;;;;;;;5.82;4.85;;;17.50;99.90;;;;;;4785886;29;20059;-55
2023/08/02 11:02:00;;;;;;;6.40;5.80;;;17.80;99.90;;;;;;4770871;29;20067;-52
2023/08/02 11:04:27;;;;;;;7.03;5.95;;;18.00;99.90;;;;;;4784572;29;20054;-53
2023/08/02 11:06:52;;;;;;;6.82;5.88;;;18.30;99.90;;;;;;4784137;29;20049;-54
2023/08/02 11:09:29;;;;;;;5.80;5.30;;;18.50;99.90;;;;;;4785680;29;20051;-56
2023/08/02 11:11:55;;;;;;;6.60;5.90;;;18.30;99.90;;;;;;4785172;29;20580;-53
2023/08/02 11:14:27;;;;;;;7.38;6.38;;;18.40;99.90;;;;;;4786391;29;20047;-55
2023/08/02 11:16:53;;;;;;;6.25;5.60;;;18.70;99.90;;;;;;4789501;29;20076;-55
2023/08/02 11:19:21;;;;;;;6.50;5.57;;;19.30;99.90;;;;;;4787191;29;20038;-54
2023/08/02 11:21:54;;;;;;;5.55;5.00;;;19.60;99.90;;;;;;4784282;29;20039;-54
2023/08/02 11:24:20;;;;;;;6.15;4.18;;;19.70;99.90;;;;;;4787423;29;20542;-53
2023/08/02 11:26:59;;;;;;;4.75;3.97;;;19.80;99.90;;;;;;4785392;29;20049;-54
2023/08/02 11:29:25;;;;;;;5.00;4.00;;;20.10;99.90;;;;;;4786413;29;20544;-55
2023/08/02 11:31:54;;;;;;;4.13;3.60;;;20.20;99.90;;;;;;4785009;29;20406;-53
2023/08/02 11:34:20;;;;;;;6.55;4.38;;;20.20;99.90;;;;;;4786383;29;20039;-54
2023/08/02 11:36:47;;;;;;;5.50;3.45;;;20.60;99.90;;;;;;4785178;29;20073;-55
2023/08/02 11:39:18;;;;;;;4.75;3.20;;;20.40;99.90;;;;;;4784955;29;20528;-54
2023/08/02 11:41:44;;;;;;;4.68;3.50;;;20.80;99.90;;;;;;4786851;29;20127;-54
2023/08/02 11:44:17;;;;;;;5.32;3.53;;;20.90;99.90;;;;;;4784750;29;20779;-53
2023/08/02 11:46:43;;;;;;;4.15;3.35;;;20.50;99.90;;;;;;4788927;29;20051;-56
2023/08/02 11:49:09;;;;;;;4.03;3.33;;;20.40;99.90;;;;;;4786190;29;20043;-52
2023/08/02 11:51:41;;;;;;;4.55;3.58;;;20.70;99.90;;;;;;4785697;29;20050;-53
2023/08/02 11:54:07;;;;;;;4.47;3.38;;;20.80;99.90;;;;;;4784523;29;20051;-57
2023/08/02 11:56:34;;;;;;;4.38;3.65;;;20.70;99.90;;;;;;4786288;29;20073;-54
2023/08/02 11:59:01;;;;;;;4.13;2.83;;;21.00;99.90;;;;;;4784470;29;20046;-56
2023/08/02 12:01:27;;;;;;;4.25;2.85;;;21.30;99.90;;;;;;4784403;29;20054;-55
2023/08/02 12:04:00;;;;;;;4.80;2.90;;;21.50;99.90;;;;;;4785242;29;20051;-51
2023/08/02 12:06:45;;;;;;;4.15;2.65;;;21.50;99.90;;;;;;4786818;29;20495;-56
2023/08/02 12:09:12;;;;;;;4.25;2.95;;;21.60;99.90;;;;;;4788213;29;20042;-53
2023/08/02 12:11:38;;;;;;;4.88;3.20;;;21.30;99.90;;;;;;4790927;29;20547;-54
2023/08/02 12:14:06;;;;;;;5.05;2.65;;;21.40;99.90;;;;;;4789092;29;20063;-54
2023/08/02 12:16:43;;;;;;;3.42;2.40;;;21.20;99.90;;;;;;4789245;29;20043;-53
2023/08/02 12:19:12;;;;;;;4.63;2.80;;;21.30;99.90;;;;;;4788792;29;20047;-55
2023/08/02 12:21:38;;;;;;;3.70;2.10;;;21.30;99.90;;;;;;4788062;29;20076;-56
2023/08/02 12:24:16;;;;;;;3.63;2.20;;;21.40;99.90;;;;;;4790139;29;20133;-54
2023/08/02 12:26:42;;;;;;;3.08;2.20;;;21.30;99.90;;;;;;4803958;29;20050;-50
2023/08/02 12:29:07;;;;;;;4.50;2.40;;;21.20;99.90;;;;;;4791521;29;20042;-54
2023/08/02 12:31:44;;;;;;;3.08;2.05;;;20.90;99.90;;;;;;4789536;29;20411;-54
2023/08/02 12:34:10;;;;;;;4.60;2.30;;;20.80;99.90;;;;;;4793985;29;20156;-52
2023/08/02 12:36:36;;;;;;;3.30;2.20;;;20.90;99.90;;;;;;4790036;29;20504;-55
2023/08/02 12:39:01;;;;;;;4.43;2.50;;;20.80;99.90;;;;;;4789407;29;20035;-53